sensor_id;sensor_type;location;lat;lon;timestamp;temperature;humidity
8043;DHT22;4064;48.132;11.366;2022-09-23T00:01:11;5.30;99.90
8043;DHT22;4064;48.132;11.366;2022-09-23T00:03:40;5.20;99.90
8043;DHT22;4064;48.132;11.366;2022-09-23T00:06:08;5.20;99.90
8043;DHT22;4064;48.132;11.366;2022-09-23T00:08:35;5.20;99.90
8043;DHT22;4064;48.132;11.366;2022-09-23T00:11:09;5.20;99.90
8043;DHT22;4064;48.132;11.366;2022-09-23T00:13:36;5.30;99.90
8043;DHT22;4064;48.132;11.366;2022-09-23T00:16:03;5.20;99.90
8043;DHT22;4064;48.132;11.366;2022-09-23T00:18:29;5.20;99.90
8043;DHT22;4064;48.132;11.366;2022-09-23T00:20:55;5.20;99.90
8043;DHT22;4064;48.132;11.366;2022-09-23T00:23:21;5.10;99.90
8043;DHT22;4064;48.132;11.366;2022-09-23T00:25:55;5.10;99.90
8043;DHT22;4064;48.132;11.366;2022-09-23T00:28:21;5.10;99.90
8043;DHT22;4064;48.132;11.366;2022-09-23T00:30:47;5.10;99.90
8043;DHT22;4064;48.132;11.366;2022-09-23T00:33:13;5.10;99.90
8043;DHT22;4064;48.132;11.366;2022-09-23T00:35:38;5.00;99.90
8043;DHT22;4064;48.132;11.366;2022-09-23T00:38:04;5.00;99.90
8043;DHT22;4064;48.132;11.366;2022-09-23T00:40:30;5.00;99.90
8043;DHT22;4064;48.132;11.366;2022-09-23T00:42:55;4.90;99.90
8043;DHT22;4064;48.132;11.366;2022-09-23T00:45:21;4.80;99.90
8043;DHT22;4064;48.132;11.366;2022-09-23T00:47:57;4.70;99.90
8043;DHT22;4064;48.132;11.366;2022-09-23T00:50:30;4.60;99.90
8043;DHT22;4064;48.132;11.366;2022-09-23T00:53:06;4.60;99.90
8043;DHT22;4064;48.132;11.366;2022-09-23T00:55:56;4.60;99.90
8043;DHT22;4064;48.132;11.366;2022-09-23T00:58:29;4.70;99.90
8043;DHT22;4064;48.132;11.366;2022-09-23T01:00:58;4.60;99.90
8043;DHT22;4064;48.132;11.366;2022-09-23T01:03:25;4.70;99.90
8043;DHT22;4064;48.132;11.366;2022-09-23T01:05:51;4.70;99.90
8043;DHT22;4064;48.132;11.366;2022-09-23T01:08:18;4.60;99.90
8043;DHT22;4064;48.132;11.366;2022-09-23T01:11:29;4.60;99.90
8043;DHT22;4064;48.132;11.366;2022-09-23T01:16:57;4.60;99.90
8043;DHT22;4064;48.132;11.366;2022-09-23T01:19:50;4.70;99.90
8043;DHT22;4064;48.132;11.366;2022-09-23T01:22:37;4.60;99.90
8043;DHT22;4064;48.132;11.366;2022-09-23T01:39:40;4.50;99.90
8043;DHT22;4064;48.132;11.366;2022-09-23T01:44:54;4.50;99.90
8043;DHT22;4064;48.132;11.366;2022-09-23T01:47:28;4.40;99.90
8043;DHT22;4064;48.132;11.366;2022-09-23T01:50:05;4.40;99.90
8043;DHT22;4064;48.132;11.366;2022-09-23T01:52:55;4.40;99.90
8043;DHT22;4064;48.132;11.366;2022-09-23T01:55:35;4.40;99.90
8043;DHT22;4064;48.132;11.366;2022-09-23T01:58:04;4.40;99.90
8043;DHT22;4064;48.132;11.366;2022-09-23T02:00:35;4.40;99.90
8043;DHT22;4064;48.132;11.366;2022-09-23T02:03:21;4.30;99.90
8043;DHT22;4064;48.132;11.366;2022-09-23T02:05:57;4.30;99.90
8043;DHT22;4064;48.132;11.366;2022-09-23T02:08:30;4.30;99.90
8043;DHT22;4064;48.132;11.366;2022-09-23T02:11:12;4.30;99.90
8043;DHT22;4064;48.132;11.366;2022-09-23T02:16:18;4.20;99.90
8043;DHT22;4064;48.132;11.366;2022-09-23T02:19:06;4.10;99.90
8043;DHT22;4064;48.132;11.366;2022-09-23T02:21:37;4.10;99.90
8043;DHT22;4064;48.132;11.366;2022-09-23T02:24:17;4.10;99.90
8043;DHT22;4064;48.132;11.366;2022-09-23T02:29:47;4.00;99.90
8043;DHT22;4064;48.132;11.366;2022-09-23T02:35:19;4.00;99.90
8043;DHT22;4064;48.132;11.366;2022-09-23T02:37:52;3.90;99.90
8043;DHT22;4064;48.132;11.366;2022-09-23T02:40:43;3.80;99.90
8043;DHT22;4064;48.132;11.366;2022-09-23T02:43:31;3.80;99.90
8043;DHT22;4064;48.132;11.366;2022-09-23T02:46:02;3.90;99.90
8043;DHT22;4064;48.132;11.366;2022-09-23T02:51:17;3.80;99.90
8043;DHT22;4064;48.132;11.366;2022-09-23T02:53:44;3.80;99.90
8043;DHT22;4064;48.132;11.366;2022-09-23T02:56:15;3.80;99.90
8043;DHT22;4064;48.132;11.366;2022-09-23T02:58:42;3.70;99.90
8043;DHT22;4064;48.132;11.366;2022-09-23T03:07:18;3.50;99.90
8043;DHT22;4064;48.132;11.366;2022-09-23T03:15:49;3.70;99.90
8043;DHT22;4064;48.132;11.366;2022-09-23T03:20:55;3.60;99.90
8043;DHT22;4064;48.132;11.366;2022-09-23T03:23:26;3.50;99.90
8043;DHT22;4064;48.132;11.366;2022-09-23T03:25:54;3.50;99.90
8043;DHT22;4064;48.132;11.366;2022-09-23T03:28:22;3.60;99.90
8043;DHT22;4064;48.132;11.366;2022-09-23T03:30:50;3.50;99.90
8043;DHT22;4064;48.132;11.366;2022-09-23T03:33:18;3.60;99.90
8043;DHT22;4064;48.132;11.366;2022-09-23T03:36:02;3.60;99.90
8043;DHT22;4064;48.132;11.366;2022-09-23T03:38:49;3.60;99.90
8043;DHT22;4064;48.132;11.366;2022-09-23T03:41:24;3.60;99.90
8043;DHT22;4064;48.132;11.366;2022-09-23T03:43:53;3.50;99.90
8043;DHT22;4064;48.132;11.366;2022-09-23T03:46:24;3.40;99.90
8043;DHT22;4064;48.132;11.366;2022-09-23T03:48:53;3.40;99.90
8043;DHT22;4064;48.132;11.366;2022-09-23T03:51:22;3.40;99.90
8043;DHT22;4064;48.132;11.366;2022-09-23T03:53:49;3.40;99.90
8043;DHT22;4064;48.132;11.366;2022-09-23T03:56:15;3.40;99.90
8043;DHT22;4064;48.132;11.366;2022-09-23T03:58:41;3.40;99.90
8043;DHT22;4064;48.132;11.366;2022-09-23T04:01:10;3.40;99.90
8043;DHT22;4064;48.132;11.366;2022-09-23T04:03:35;3.40;99.90
8043;DHT22;4064;48.132;11.366;2022-09-23T04:06:01;3.40;99.90
8043;DHT22;4064;48.132;11.366;2022-09-23T04:08:27;3.30;99.90
8043;DHT22;4064;48.132;11.366;2022-09-23T04:10:58;3.40;99.90
8043;DHT22;4064;48.132;11.366;2022-09-23T04:13:24;3.40;99.90
8043;DHT22;4064;48.132;11.366;2022-09-23T04:15:50;3.40;99.90
8043;DHT22;4064;48.132;11.366;2022-09-23T04:18:16;3.30;99.90
8043;DHT22;4064;48.132;11.366;2022-09-23T04:20:41;3.10;99.90
8043;DHT22;4064;48.132;11.366;2022-09-23T04:23:07;3.10;99.90
8043;DHT22;4064;48.132;11.366;2022-09-23T04:25:33;3.00;99.90
8043;DHT22;4064;48.132;11.366;2022-09-23T04:28:11;3.10;99.90
8043;DHT22;4064;48.132;11.366;2022-09-23T04:30:40;3.00;99.90
8043;DHT22;4064;48.132;11.366;2022-09-23T04:33:11;3.00;99.90
8043;DHT22;4064;48.132;11.366;2022-09-23T04:35:38;2.90;99.90
8043;DHT22;4064;48.132;11.366;2022-09-23T04:38:05;2.90;99.90
8043;DHT22;4064;48.132;11.366;2022-09-23T04:40:32;2.90;99.90
8043;DHT22;4064;48.132;11.366;2022-09-23T04:42:58;3.00;99.90
8043;DHT22;4064;48.132;11.366;2022-09-23T04:45:23;2.90;99.90
8043;DHT22;4064;48.132;11.366;2022-09-23T04:47:49;3.00;99.90
8043;DHT22;4064;48.132;11.366;2022-09-23T04:50:15;3.00;99.90
8043;DHT22;4064;48.132;11.366;2022-09-23T04:52:40;3.10;99.90
8043;DHT22;4064;48.132;11.366;2022-09-23T04:55:06;3.20;99.90
8043;DHT22;4064;48.132;11.366;2022-09-23T04:57:32;3.10;99.90
8043;DHT22;4064;48.132;11.366;2022-09-23T04:59:59;3.20;99.90
8043;DHT22;4064;48.132;11.366;2022-09-23T05:02:25;3.20;99.90
8043;DHT22;4064;48.132;11.366;2022-09-23T05:04:52;3.30;99.90
8043;DHT22;4064;48.132;11.366;2022-09-23T05:07:18;3.30;99.90
8043;DHT22;4064;48.132;11.366;2022-09-23T05:09:44;3.30;99.90
8043;DHT22;4064;48.132;11.366;2022-09-23T05:12:10;3.30;99.90
8043;DHT22;4064;48.132;11.366;2022-09-23T05:14:36;3.30;99.90
8043;DHT22;4064;48.132;11.366;2022-09-23T05:17:04;3.30;99.90
8043;DHT22;4064;48.132;11.366;2022-09-23T05:19:29;3.30;99.90
8043;DHT22;4064;48.132;11.366;2022-09-23T05:21:55;3.30;99.90
8043;DHT22;4064;48.132;11.366;2022-09-23T05:24:21;3.40;99.90
8043;DHT22;4064;48.132;11.366;2022-09-23T05:26:49;3.30;99.90
8043;DHT22;4064;48.132;11.366;2022-09-23T05:29:14;3.20;99.90
8043;DHT22;4064;48.132;11.366;2022-09-23T05:31:40;3.30;99.90
8043;DHT22;4064;48.132;11.366;2022-09-23T05:34:06;3.40;99.90
8043;DHT22;4064;48.132;11.366;2022-09-23T05:36:33;3.40;99.90
8043;DHT22;4064;48.132;11.366;2022-09-23T05:38:59;3.50;99.90
8043;DHT22;4064;48.132;11.366;2022-09-23T05:41:25;3.50;99.90
8043;DHT22;4064;48.132;11.366;2022-09-23T05:43:52;3.50;99.90
8043;DHT22;4064;48.132;11.366;2022-09-23T05:46:24;3.50;99.90
8043;DHT22;4064;48.132;11.366;2022-09-23T05:48:50;3.40;99.90
8043;DHT22;4064;48.132;11.366;2022-09-23T05:51:18;3.40;99.90
8043;DHT22;4064;48.132;11.366;2022-09-23T05:53:45;3.50;99.90
8043;DHT22;4064;48.132;11.366;2022-09-23T05:56:12;3.40;99.90
8043;DHT22;4064;48.132;11.366;2022-09-23T05:58:38;3.50;99.90
8043;DHT22;4064;48.132;11.366;2022-09-23T06:01:12;3.60;99.90
8043;DHT22;4064;48.132;11.366;2022-09-23T06:03:41;3.60;99.90
8043;DHT22;4064;48.132;11.366;2022-09-23T06:06:12;3.70;99.90
8043;DHT22;4064;48.132;11.366;2022-09-23T06:08:39;3.70;99.90
8043;DHT22;4064;48.132;11.366;2022-09-23T06:11:06;3.80;99.90
8043;DHT22;4064;48.132;11.366;2022-09-23T06:13:36;3.90;99.90
8043;DHT22;4064;48.132;11.366;2022-09-23T06:16:04;4.50;99.90
8043;DHT22;4064;48.132;11.366;2022-09-23T06:18:30;5.50;99.90
8043;DHT22;4064;48.132;11.366;2022-09-23T06:21:02;7.20;99.90
8043;DHT22;4064;48.132;11.366;2022-09-23T06:23:28;7.70;99.90
8043;DHT22;4064;48.132;11.366;2022-09-23T06:25:59;7.90;99.90
8043;DHT22;4064;48.132;11.366;2022-09-23T06:28:29;8.00;99.90
8043;DHT22;4064;48.132;11.366;2022-09-23T06:31:00;8.10;99.90
8043;DHT22;4064;48.132;11.366;2022-09-23T06:33:28;8.20;99.90
8043;DHT22;4064;48.132;11.366;2022-09-23T06:35:55;8.30;99.90
8043;DHT22;4064;48.132;11.366;2022-09-23T06:38:21;8.40;99.90
8043;DHT22;4064;48.132;11.366;2022-09-23T06:40:54;8.30;99.90
8043;DHT22;4064;48.132;11.366;2022-09-23T06:43:24;8.20;99.90
8043;DHT22;4064;48.132;11.366;2022-09-23T06:45:55;8.10;99.90
8043;DHT22;4064;48.132;11.366;2022-09-23T06:48:21;8.10;99.90
8043;DHT22;4064;48.132;11.366;2022-09-23T06:50:58;8.00;99.90
8043;DHT22;4064;48.132;11.366;2022-09-23T06:53:24;7.90;99.90
8043;DHT22;4064;48.132;11.366;2022-09-23T06:58:25;7.90;99.90
8043;DHT22;4064;48.132;11.366;2022-09-23T07:00:51;8.10;99.90
8043;DHT22;4064;48.132;11.366;2022-09-23T07:03:18;8.30;99.90
8043;DHT22;4064;48.132;11.366;2022-09-23T07:05:46;8.60;99.90
8043;DHT22;4064;48.132;11.366;2022-09-23T07:08:12;8.90;99.90
8043;DHT22;4064;48.132;11.366;2022-09-23T07:10:37;9.40;99.90
8043;DHT22;4064;48.132;11.366;2022-09-23T07:13:03;10.10;99.90
8043;DHT22;4064;48.132;11.366;2022-09-23T07:15:29;10.90;99.90
8043;DHT22;4064;48.132;11.366;2022-09-23T07:17:55;11.90;99.90
8043;DHT22;4064;48.132;11.366;2022-09-23T07:20:21;12.70;99.90
8043;DHT22;4064;48.132;11.366;2022-09-23T07:22:51;13.30;99.90
8043;DHT22;4064;48.132;11.366;2022-09-23T07:25:20;14.00;99.90
8043;DHT22;4064;48.132;11.366;2022-09-23T07:27:47;14.70;99.90
8043;DHT22;4064;48.132;11.366;2022-09-23T07:30:13;15.40;98.90
8043;DHT22;4064;48.132;11.366;2022-09-23T07:32:39;15.90;96.00
8043;DHT22;4064;48.132;11.366;2022-09-23T07:35:06;16.40;95.20
8043;DHT22;4064;48.132;11.366;2022-09-23T07:37:32;16.70;92.70
8043;DHT22;4064;48.132;11.366;2022-09-23T07:39:58;17.10;91.30
8043;DHT22;4064;48.132;11.366;2022-09-23T07:42:24;17.10;89.30
8043;DHT22;4064;48.132;11.366;2022-09-23T07:44:49;17.30;86.30
8043;DHT22;4064;48.132;11.366;2022-09-23T07:47:16;17.70;84.30
8043;DHT22;4064;48.132;11.366;2022-09-23T07:49:42;17.80;84.50
8043;DHT22;4064;48.132;11.366;2022-09-23T07:52:08;18.00;82.10
8043;DHT22;4064;48.132;11.366;2022-09-23T07:54:34;18.10;79.80
8043;DHT22;4064;48.132;11.366;2022-09-23T07:57:00;17.90;78.20
8043;DHT22;4064;48.132;11.366;2022-09-23T07:59:25;18.10;78.80
8043;DHT22;4064;48.132;11.366;2022-09-23T08:01:51;18.40;77.00
8043;DHT22;4064;48.132;11.366;2022-09-23T08:06:49;18.50;76.60
8043;DHT22;4064;48.132;11.366;2022-09-23T08:09:17;18.40;75.20
8043;DHT22;4064;48.132;11.366;2022-09-23T08:11:43;18.40;75.60
8043;DHT22;4064;48.132;11.366;2022-09-23T08:14:10;18.70;74.10
8043;DHT22;4064;48.132;11.366;2022-09-23T08:16:38;18.70;72.90
8043;DHT22;4064;48.132;11.366;2022-09-23T08:19:05;18.60;71.60
8043;DHT22;4064;48.132;11.366;2022-09-23T08:21:31;18.60;72.00
8043;DHT22;4064;48.132;11.366;2022-09-23T08:23:57;18.40;72.60
8043;DHT22;4064;48.132;11.366;2022-09-23T08:26:23;18.80;73.20
8043;DHT22;4064;48.132;11.366;2022-09-23T08:28:52;18.80;71.50
8043;DHT22;4064;48.132;11.366;2022-09-23T08:31:22;18.70;71.40
8043;DHT22;4064;48.132;11.366;2022-09-23T08:33:55;18.70;71.10
8043;DHT22;4064;48.132;11.366;2022-09-23T08:36:22;18.90;72.50
8043;DHT22;4064;48.132;11.366;2022-09-23T08:38:48;19.10;71.70
8043;DHT22;4064;48.132;11.366;2022-09-23T08:44:09;18.80;70.40
8043;DHT22;4064;48.132;11.366;2022-09-23T08:46:50;19.00;70.40
8043;DHT22;4064;48.132;11.366;2022-09-23T08:49:40;19.30;69.00
8043;DHT22;4064;48.132;11.366;2022-09-23T08:52:15;19.50;67.70
8043;DHT22;4064;48.132;11.366;2022-09-23T08:54:42;19.70;67.90
8043;DHT22;4064;48.132;11.366;2022-09-23T08:57:17;19.80;68.70
8043;DHT22;4064;48.132;11.366;2022-09-23T08:59:46;20.30;69.20
8043;DHT22;4064;48.132;11.366;2022-09-23T09:02:17;20.40;66.10
8043;DHT22;4064;48.132;11.366;2022-09-23T09:04:46;20.40;67.70
8043;DHT22;4064;48.132;11.366;2022-09-23T09:07:18;20.30;67.30
8043;DHT22;4064;48.132;11.366;2022-09-23T09:09:47;20.40;68.30
8043;DHT22;4064;48.132;11.366;2022-09-23T09:12:17;20.30;68.60
8043;DHT22;4064;48.132;11.366;2022-09-23T09:15:20;20.40;68.10
8043;DHT22;4064;48.132;11.366;2022-09-23T09:23:11;20.30;67.20
8043;DHT22;4064;48.132;11.366;2022-09-23T09:25:51;20.50;68.00
8043;DHT22;4064;48.132;11.366;2022-09-23T09:28:39;20.80;68.10
8043;DHT22;4064;48.132;11.366;2022-09-23T09:36:38;21.40;67.10
8043;DHT22;4064;48.132;11.366;2022-09-23T09:39:11;21.50;66.20
8043;DHT22;4064;48.132;11.366;2022-09-23T09:41:40;21.60;65.80
8043;DHT22;4064;48.132;11.366;2022-09-23T09:52:28;20.50;64.80
8043;DHT22;4064;48.132;11.366;2022-09-23T09:55:13;20.20;65.70
8043;DHT22;4064;48.132;11.366;2022-09-23T10:08:31;20.10;66.40
8043;DHT22;4064;48.132;11.366;2022-09-23T10:11:16;20.20;66.80
8043;DHT22;4064;48.132;11.366;2022-09-23T10:16:37;21.00;63.60
8043;DHT22;4064;48.132;11.366;2022-09-23T10:19:26;21.50;64.10
8043;DHT22;4064;48.132;11.366;2022-09-23T10:21:54;21.60;60.90
8043;DHT22;4064;48.132;11.366;2022-09-23T10:24:28;21.80;61.50
8043;DHT22;4064;48.132;11.366;2022-09-23T10:26:59;21.90;61.20
8043;DHT22;4064;48.132;11.366;2022-09-23T10:29:54;21.90;61.60
8043;DHT22;4064;48.132;11.366;2022-09-23T10:32:34;21.80;60.20
8043;DHT22;4064;48.132;11.366;2022-09-23T10:37:51;21.50;59.60
8043;DHT22;4064;48.132;11.366;2022-09-23T10:46:02;21.60;60.70
8043;DHT22;4064;48.132;11.366;2022-09-23T11:08:21;21.20;61.30
8043;DHT22;4064;48.132;11.366;2022-09-23T11:11:16;21.00;61.80
8043;DHT22;4064;48.132;11.366;2022-09-23T11:36:56;21.50;59.60
8043;DHT22;4064;48.132;11.366;2022-09-23T11:39:34;21.50;61.20
8043;DHT22;4064;48.132;11.366;2022-09-23T11:42:02;21.50;60.00
8043;DHT22;4064;48.132;11.366;2022-09-23T11:44:41;21.30;58.90
8043;DHT22;4064;48.132;11.366;2022-09-23T11:47:23;21.30;58.40
8043;DHT22;4064;48.132;11.366;2022-09-23T11:53:21;21.30;59.00
8043;DHT22;4064;48.132;11.366;2022-09-23T11:55:59;21.40;59.40
8043;DHT22;4064;48.132;11.366;2022-09-23T11:58:38;21.50;60.00
8043;DHT22;4064;48.132;11.366;2022-09-23T12:01:14;21.70;61.40
8043;DHT22;4064;48.132;11.366;2022-09-23T12:03:58;21.70;59.90
8043;DHT22;4064;48.132;11.366;2022-09-23T12:06:34;21.70;58.90
8043;DHT22;4064;48.132;11.366;2022-09-23T12:09:07;21.90;59.60
8043;DHT22;4064;48.132;11.366;2022-09-23T12:28:18;22.30;60.20
8043;DHT22;4064;48.132;11.366;2022-09-23T12:30:46;22.40;59.40
8043;DHT22;4064;48.132;11.366;2022-09-23T12:35:42;22.60;59.80
8043;DHT22;4064;48.132;11.366;2022-09-23T12:38:36;22.60;60.70
8043;DHT22;4064;48.132;11.366;2022-09-23T12:41:28;22.50;57.90
8043;DHT22;4064;48.132;11.366;2022-09-23T12:46:42;22.80;58.50
8043;DHT22;4064;48.132;11.366;2022-09-23T12:49:35;22.80;58.70
8043;DHT22;4064;48.132;11.366;2022-09-23T12:52:24;22.80;58.40
8043;DHT22;4064;48.132;11.366;2022-09-23T12:54:54;22.70;58.30
8043;DHT22;4064;48.132;11.366;2022-09-23T13:03:00;22.50;58.90
8043;DHT22;4064;48.132;11.366;2022-09-23T13:05:49;22.60;58.50
8043;DHT22;4064;48.132;11.366;2022-09-23T13:08:37;22.80;58.00
8043;DHT22;4064;48.132;11.366;2022-09-23T13:11:06;23.00;57.60
8043;DHT22;4064;48.132;11.366;2022-09-23T13:13:43;22.90;57.80
8043;DHT22;4064;48.132;11.366;2022-09-23T13:22:04;23.10;58.10
8043;DHT22;4064;48.132;11.366;2022-09-23T13:24:44;23.10;56.80
8043;DHT22;4064;48.132;11.366;2022-09-23T13:27:17;22.90;57.80
8043;DHT22;4064;48.132;11.366;2022-09-23T13:35:25;22.30;59.30
8043;DHT22;4064;48.132;11.366;2022-09-23T13:37:54;22.00;59.50
8043;DHT22;4064;48.132;11.366;2022-09-23T13:40:23;22.00;60.00
8043;DHT22;4064;48.132;11.366;2022-09-23T13:43:01;22.20;60.20
8043;DHT22;4064;48.132;11.366;2022-09-23T13:45:29;22.20;61.30
8043;DHT22;4064;48.132;11.366;2022-09-23T13:48:02;22.30;59.80
8043;DHT22;4064;48.132;11.366;2022-09-23T13:50:29;22.20;59.10
8043;DHT22;4064;48.132;11.366;2022-09-23T13:52:56;22.30;58.60
8043;DHT22;4064;48.132;11.366;2022-09-23T13:55:32;22.50;58.70
8043;DHT22;4064;48.132;11.366;2022-09-23T13:58:14;22.70;59.10
8043;DHT22;4064;48.132;11.366;2022-09-23T14:00:42;22.90;58.50
8043;DHT22;4064;48.132;11.366;2022-09-23T14:03:27;22.90;57.70
8043;DHT22;4064;48.132;11.366;2022-09-23T14:05:54;22.90;56.00
8043;DHT22;4064;48.132;11.366;2022-09-23T14:08:20;22.90;57.30
8043;DHT22;4064;48.132;11.366;2022-09-23T14:10:47;22.90;56.50
8043;DHT22;4064;48.132;11.366;2022-09-23T14:13:21;22.90;55.90
8043;DHT22;4064;48.132;11.366;2022-09-23T14:15:48;22.80;55.40
8043;DHT22;4064;48.132;11.366;2022-09-23T14:18:22;22.60;54.80
8043;DHT22;4064;48.132;11.366;2022-09-23T14:20:51;22.50;54.00
8043;DHT22;4064;48.132;11.366;2022-09-23T14:23:17;22.50;53.50
8043;DHT22;4064;48.132;11.366;2022-09-23T14:25:43;22.40;54.20
8043;DHT22;4064;48.132;11.366;2022-09-23T14:28:18;22.20;54.30
8043;DHT22;4064;48.132;11.366;2022-09-23T14:30:45;22.10;54.90
8043;DHT22;4064;48.132;11.366;2022-09-23T14:33:17;21.80;54.20
8043;DHT22;4064;48.132;11.366;2022-09-23T14:35:49;21.70;54.70
8043;DHT22;4064;48.132;11.366;2022-09-23T14:38:25;21.60;54.70
8043;DHT22;4064;48.132;11.366;2022-09-23T14:41:24;21.50;55.00
8043;DHT22;4064;48.132;11.366;2022-09-23T14:44:00;21.30;55.50
8043;DHT22;4064;48.132;11.366;2022-09-23T14:46:29;21.10;55.20
8043;DHT22;4064;48.132;11.366;2022-09-23T14:51:48;20.80;56.90
8043;DHT22;4064;48.132;11.366;2022-09-23T14:56:58;20.50;56.50
8043;DHT22;4064;48.132;11.366;2022-09-23T14:59:31;20.30;57.60
8043;DHT22;4064;48.132;11.366;2022-09-23T15:01:58;20.10;58.00
8043;DHT22;4064;48.132;11.366;2022-09-23T15:06:53;19.90;57.90
8043;DHT22;4064;48.132;11.366;2022-09-23T15:09:22;19.80;58.90
8043;DHT22;4064;48.132;11.366;2022-09-23T15:11:51;19.80;59.50
8043;DHT22;4064;48.132;11.366;2022-09-23T15:14:18;19.70;59.50
8043;DHT22;4064;48.132;11.366;2022-09-23T15:16:45;19.70;59.80
8043;DHT22;4064;48.132;11.366;2022-09-23T15:19:17;19.60;59.70
8043;DHT22;4064;48.132;11.366;2022-09-23T15:21:45;19.50;59.40
8043;DHT22;4064;48.132;11.366;2022-09-23T15:24:31;19.50;60.80
8043;DHT22;4064;48.132;11.366;2022-09-23T15:26:58;19.40;61.50
8043;DHT22;4064;48.132;11.366;2022-09-23T15:29:23;19.20;60.00
8043;DHT22;4064;48.132;11.366;2022-09-23T15:31:50;19.10;60.60
8043;DHT22;4064;48.132;11.366;2022-09-23T15:34:16;19.00;60.60
8043;DHT22;4064;48.132;11.366;2022-09-23T15:36:43;19.00;61.30
8043;DHT22;4064;48.132;11.366;2022-09-23T15:39:10;18.90;60.60
8043;DHT22;4064;48.132;11.366;2022-09-23T15:41:36;18.90;62.00
8043;DHT22;4064;48.132;11.366;2022-09-23T15:44:14;18.70;61.60
8043;DHT22;4064;48.132;11.366;2022-09-23T15:46:58;18.70;62.80
8043;DHT22;4064;48.132;11.366;2022-09-23T15:49:33;18.60;63.80
8043;DHT22;4064;48.132;11.366;2022-09-23T15:52:00;18.60;63.30
8043;DHT22;4064;48.132;11.366;2022-09-23T15:54:27;18.60;62.80
8043;DHT22;4064;48.132;11.366;2022-09-23T15:56:53;18.60;62.60
8043;DHT22;4064;48.132;11.366;2022-09-23T15:59:19;18.50;63.00
8043;DHT22;4064;48.132;11.366;2022-09-23T16:01:46;18.40;63.60
8043;DHT22;4064;48.132;11.366;2022-09-23T16:04:12;18.20;64.90
8043;DHT22;4064;48.132;11.366;2022-09-23T16:06:41;18.10;65.30
8043;DHT22;4064;48.132;11.366;2022-09-23T16:09:09;17.90;66.60
8043;DHT22;4064;48.132;11.366;2022-09-23T16:11:38;17.70;67.70
8043;DHT22;4064;48.132;11.366;2022-09-23T16:14:04;17.50;68.60
8043;DHT22;4064;48.132;11.366;2022-09-23T16:16:32;17.30;69.30
8043;DHT22;4064;48.132;11.366;2022-09-23T16:18:57;17.10;69.70
8043;DHT22;4064;48.132;11.366;2022-09-23T16:21:24;17.00;69.80
8043;DHT22;4064;48.132;11.366;2022-09-23T16:23:51;16.80;71.10
8043;DHT22;4064;48.132;11.366;2022-09-23T16:26:22;16.70;71.40
8043;DHT22;4064;48.132;11.366;2022-09-23T16:28:51;16.60;71.10
8043;DHT22;4064;48.132;11.366;2022-09-23T16:31:18;16.50;72.90
8043;DHT22;4064;48.132;11.366;2022-09-23T16:33:45;16.40;73.20
8043;DHT22;4064;48.132;11.366;2022-09-23T16:36:32;16.30;73.50
8043;DHT22;4064;48.132;11.366;2022-09-23T16:39:00;16.20;73.80
8043;DHT22;4064;48.132;11.366;2022-09-23T16:41:28;16.00;74.90
8043;DHT22;4064;48.132;11.366;2022-09-23T16:43:56;15.90;75.60
8043;DHT22;4064;48.132;11.366;2022-09-23T16:46:23;15.80;76.40
8043;DHT22;4064;48.132;11.366;2022-09-23T16:48:49;15.70;76.90
8043;DHT22;4064;48.132;11.366;2022-09-23T16:51:21;15.60;77.70
8043;DHT22;4064;48.132;11.366;2022-09-23T16:53:48;15.50;76.90
8043;DHT22;4064;48.132;11.366;2022-09-23T16:56:16;15.50;77.60
8043;DHT22;4064;48.132;11.366;2022-09-23T16:58:43;15.30;78.10
8043;DHT22;4064;48.132;11.366;2022-09-23T17:01:15;15.20;78.70
8043;DHT22;4064;48.132;11.366;2022-09-23T17:04:02;15.10;79.60
8043;DHT22;4064;48.132;11.366;2022-09-23T17:06:29;15.00;80.60
8043;DHT22;4064;48.132;11.366;2022-09-23T17:08:54;14.90;81.00
8043;DHT22;4064;48.132;11.366;2022-09-23T17:11:21;14.80;81.70
8043;DHT22;4064;48.132;11.366;2022-09-23T17:13:47;14.60;82.50
8043;DHT22;4064;48.132;11.366;2022-09-23T17:16:25;14.50;83.20
8043;DHT22;4064;48.132;11.366;2022-09-23T17:18:51;14.40;83.80
8043;DHT22;4064;48.132;11.366;2022-09-23T17:21:20;14.40;84.30
8043;DHT22;4064;48.132;11.366;2022-09-23T17:23:46;14.30;85.00
8043;DHT22;4064;48.132;11.366;2022-09-23T17:26:13;14.10;85.80
8043;DHT22;4064;48.132;11.366;2022-09-23T17:28:39;14.00;86.60
8043;DHT22;4064;48.132;11.366;2022-09-23T17:31:06;13.90;87.80
8043;DHT22;4064;48.132;11.366;2022-09-23T17:33:33;13.80;89.00
8043;DHT22;4064;48.132;11.366;2022-09-23T17:36:07;13.70;89.50
8043;DHT22;4064;48.132;11.366;2022-09-23T17:38:33;13.70;90.20
8043;DHT22;4064;48.132;11.366;2022-09-23T17:40:59;13.60;90.50
8043;DHT22;4064;48.132;11.366;2022-09-23T17:43:27;13.60;91.00
8043;DHT22;4064;48.132;11.366;2022-09-23T17:45:56;13.50;91.20
8043;DHT22;4064;48.132;11.366;2022-09-23T17:48:25;13.40;91.70
8043;DHT22;4064;48.132;11.366;2022-09-23T17:53:20;13.30;92.50
8043;DHT22;4064;48.132;11.366;2022-09-23T17:55:59;13.30;92.70
8043;DHT22;4064;48.132;11.366;2022-09-23T17:58:28;13.30;93.40
8043;DHT22;4064;48.132;11.366;2022-09-23T18:00:55;13.20;93.30
8043;DHT22;4064;48.132;11.366;2022-09-23T18:03:22;13.20;93.50
8043;DHT22;4064;48.132;11.366;2022-09-23T18:05:47;13.10;93.80
8043;DHT22;4064;48.132;11.366;2022-09-23T18:08:13;13.10;94.00
8043;DHT22;4064;48.132;11.366;2022-09-23T18:10:39;13.00;94.40
8043;DHT22;4064;48.132;11.366;2022-09-23T18:13:05;12.90;94.50
8043;DHT22;4064;48.132;11.366;2022-09-23T18:15:33;12.80;94.90
8043;DHT22;4064;48.132;11.366;2022-09-23T18:17:59;12.70;95.70
8043;DHT22;4064;48.132;11.366;2022-09-23T18:20:25;12.60;96.00
8043;DHT22;4064;48.132;11.366;2022-09-23T18:22:53;12.60;96.50
8043;DHT22;4064;48.132;11.366;2022-09-23T18:25:19;12.50;96.60
8043;DHT22;4064;48.132;11.366;2022-09-23T18:27:45;12.40;97.20
8043;DHT22;4064;48.132;11.366;2022-09-23T18:30:11;12.30;97.50
8043;DHT22;4064;48.132;11.366;2022-09-23T18:32:36;12.20;98.10
8043;DHT22;4064;48.132;11.366;2022-09-23T18:35:02;12.10;98.50
8043;DHT22;4064;48.132;11.366;2022-09-23T18:37:28;12.00;98.90
8043;DHT22;4064;48.132;11.366;2022-09-23T18:39:54;12.00;99.50
8043;DHT22;4064;48.132;11.366;2022-09-23T18:42:20;11.90;99.90
8043;DHT22;4064;48.132;11.366;2022-09-23T18:44:45;11.90;99.90
8043;DHT22;4064;48.132;11.366;2022-09-23T18:47:14;11.70;99.90
8043;DHT22;4064;48.132;11.366;2022-09-23T18:49:59;11.70;99.90
8043;DHT22;4064;48.132;11.366;2022-09-23T18:52:48;11.60;99.90
8043;DHT22;4064;48.132;11.366;2022-09-23T18:55:14;11.60;99.90
8043;DHT22;4064;48.132;11.366;2022-09-23T18:57:39;11.50;99.90
8043;DHT22;4064;48.132;11.366;2022-09-23T19:00:06;11.50;99.90
8043;DHT22;4064;48.132;11.366;2022-09-23T19:02:33;11.40;99.90
8043;DHT22;4064;48.132;11.366;2022-09-23T19:04:59;11.40;99.90
8043;DHT22;4064;48.132;11.366;2022-09-23T19:07:25;11.30;99.90
8043;DHT22;4064;48.132;11.366;2022-09-23T19:09:50;11.30;99.90
8043;DHT22;4064;48.132;11.366;2022-09-23T19:12:16;11.20;99.90
8043;DHT22;4064;48.132;11.366;2022-09-23T19:14:42;11.10;99.90
8043;DHT22;4064;48.132;11.366;2022-09-23T19:17:09;11.00;99.90
8043;DHT22;4064;48.132;11.366;2022-09-23T19:19:35;11.00;99.90
8043;DHT22;4064;48.132;11.366;2022-09-23T19:22:01;11.00;99.90
8043;DHT22;4064;48.132;11.366;2022-09-23T19:24:27;11.00;99.90